createdAt,value
2023-05-07T00:01:15.201Z,15.30
2023-05-07T00:03:22.726Z,15.30
2023-05-07T00:05:27.979Z,15.10
2023-05-07T00:07:33.031Z,15.10
2023-05-07T00:09:38.837Z,15.30
2023-05-07T00:11:49.499Z,15.30
2023-05-07T00:13:58.230Z,15.40
2023-05-07T00:16:03.116Z,15.10
2023-05-07T00:18:08.247Z,15.00
2023-05-07T00:20:14.786Z,15.20
2023-05-07T00:22:23.461Z,15.30
2023-05-07T00:24:28.645Z,14.90
2023-05-07T00:26:33.703Z,15.00
2023-05-07T00:28:41.324Z,15.10
2023-05-07T00:30:46.223Z,15.20
2023-05-07T00:32:52.037Z,15.20
2023-05-07T00:34:57.373Z,15.30
2023-05-07T00:37:02.718Z,15.20
2023-05-07T00:39:08.663Z,14.90
2023-05-07T00:41:14.815Z,14.80
2023-05-07T00:43:20.323Z,14.80
2023-05-07T00:45:31.153Z,14.70
2023-05-07T00:47:36.162Z,14.70
2023-05-07T00:49:42.705Z,14.80
2023-05-07T00:51:52.569Z,14.70
2023-05-07T00:53:57.922Z,14.90
2023-05-07T00:56:04.646Z,14.90
2023-05-07T00:58:10.097Z,14.70
2023-05-07T01:00:16.419Z,14.70
2023-05-07T01:02:24.364Z,14.70
2023-05-07T01:04:30.533Z,14.60
2023-05-07T01:06:37.170Z,14.60
2023-05-07T01:08:47.651Z,14.80
2023-05-07T01:10:55.326Z,14.60
2023-05-07T01:13:02.952Z,14.70
2023-05-07T01:15:11.816Z,14.60
2023-05-07T01:17:22.071Z,14.70
2023-05-07T01:19:33.569Z,14.60
2023-05-07T01:21:41.592Z,14.60
2023-05-07T01:23:50.968Z,14.50
2023-05-07T01:25:56.716Z,14.40
2023-05-07T01:28:05.223Z,14.50
2023-05-07T01:30:14.452Z,14.50
2023-05-07T01:32:23.217Z,14.60
2023-05-07T01:34:29.545Z,14.60
2023-05-07T01:36:35.726Z,14.40
2023-05-07T01:38:44.636Z,14.30
2023-05-07T01:40:52.325Z,14.40
2023-05-07T01:42:58.807Z,14.50
2023-05-07T01:45:03.975Z,14.60
2023-05-07T01:47:10.965Z,14.50
2023-05-07T01:49:16.131Z,14.70
2023-05-07T01:51:22.392Z,14.80
2023-05-07T01:53:27.861Z,14.80
2023-05-07T01:55:32.722Z,14.90
2023-05-07T01:57:43.357Z,14.90
2023-05-07T01:59:48.442Z,14.90
2023-05-07T02:01:53.503Z,14.90
2023-05-07T02:04:08.045Z,14.80
2023-05-07T02:06:12.997Z,14.80
2023-05-07T02:08:18.882Z,14.70
2023-05-07T02:10:23.867Z,14.70
2023-05-07T02:12:31.350Z,14.50
2023-05-07T02:14:38.759Z,14.50
2023-05-07T02:16:45.760Z,14.40
2023-05-07T02:18:52.567Z,14.60
2023-05-07T02:20:57.706Z,14.50
2023-05-07T02:23:04.332Z,14.40
2023-05-07T02:25:10.691Z,14.40
2023-05-07T02:27:22.489Z,14.40
2023-05-07T02:29:29.005Z,14.60
2023-05-07T02:31:38.497Z,14.30
2023-05-07T02:33:46.730Z,14.30
2023-05-07T02:35:53.081Z,14.30
2023-05-07T02:37:58.025Z,14.30
2023-05-07T02:40:05.582Z,14.20
2023-05-07T02:42:10.972Z,14.30
2023-05-07T02:44:18.060Z,14.20
2023-05-07T02:46:28.455Z,14.30
2023-05-07T02:48:44.167Z,14.40
2023-05-07T02:50:50.673Z,14.40
2023-05-07T02:52:58.610Z,14.30
2023-05-07T02:55:06.568Z,14.30
2023-05-07T02:57:14.067Z,14.20
2023-05-07T02:59:21.757Z,14.40
2023-05-07T03:01:26.812Z,14.20
2023-05-07T03:03:43.469Z,14.20
2023-05-07T03:05:48.359Z,14.10
2023-05-07T03:07:53.433Z,14.00
2023-05-07T03:09:58.342Z,14.00
2023-05-07T03:12:03.179Z,14.10
2023-05-07T03:14:08.906Z,14.10
2023-05-07T03:16:13.750Z,14.10
2023-05-07T03:18:19.048Z,14.00
2023-05-07T03:20:26.622Z,14.00
2023-05-07T03:22:37.041Z,14.10
2023-05-07T03:24:42.207Z,14.20
2023-05-07T03:26:47.039Z,14.00
2023-05-07T03:28:51.966Z,14.10
2023-05-07T03:30:58.322Z,14.00
2023-05-07T03:33:03.681Z,13.90
2023-05-07T03:35:09.756Z,14.00
2023-05-07T03:37:19.939Z,14.00
2023-05-07T03:39:26.725Z,13.70
2023-05-07T03:41:31.872Z,13.70
2023-05-07T03:43:36.830Z,13.90
2023-05-07T03:45:47.566Z,13.90
2023-05-07T03:47:57.704Z,14.00
2023-05-07T03:50:03.272Z,14.00
2023-05-07T03:52:08.325Z,13.80
2023-05-07T03:54:16.388Z,13.80
2023-05-07T03:56:23.546Z,13.90
2023-05-07T03:58:36.019Z,13.80
2023-05-07T04:00:50.209Z,13.80
2023-05-07T04:03:06.197Z,13.60
2023-05-07T04:05:11.895Z,13.90
2023-05-07T04:07:25.949Z,13.70
2023-05-07T04:09:33.612Z,13.70
2023-05-07T04:11:41.498Z,13.60
2023-05-07T04:13:49.133Z,13.60
2023-05-07T04:16:01.351Z,13.50
2023-05-07T04:18:07.323Z,13.70
2023-05-07T04:20:18.946Z,13.70
2023-05-07T04:22:31.661Z,13.70
2023-05-07T04:24:44.380Z,13.70
2023-05-07T04:26:52.459Z,13.80
2023-05-07T04:29:00.354Z,13.90
2023-05-07T04:31:11.079Z,13.70
2023-05-07T04:33:19.717Z,13.90
2023-05-07T04:35:26.223Z,13.70
2023-05-07T04:37:31.064Z,13.70
2023-05-07T04:39:46.730Z,13.70
2023-05-07T04:41:54.916Z,13.70
2023-05-07T04:44:00.345Z,13.70
2023-05-07T04:46:08.894Z,13.50
2023-05-07T04:48:17.394Z,13.50
2023-05-07T04:50:25.519Z,13.60
2023-05-07T04:52:34.132Z,13.70
2023-05-07T04:54:41.773Z,13.80
2023-05-07T04:56:48.833Z,14.00
2023-05-07T04:58:54.327Z,13.90
2023-05-07T05:01:03.137Z,13.70
2023-05-07T05:03:09.048Z,13.80
2023-05-07T05:05:16.431Z,13.90
2023-05-07T05:07:21.300Z,13.80
2023-05-07T05:09:26.169Z,13.70
2023-05-07T05:11:38.326Z,13.80
2023-05-07T05:13:45.985Z,13.70
2023-05-07T05:15:56.133Z,13.90
2023-05-07T05:18:04.444Z,13.60
2023-05-07T05:20:12.133Z,13.80
2023-05-07T05:22:22.034Z,13.80
2023-05-07T05:24:27.739Z,13.80
2023-05-07T05:26:35.740Z,13.80
2023-05-07T05:28:41.315Z,13.90
2023-05-07T05:30:47.086Z,13.80
2023-05-07T05:32:52.400Z,13.90
2023-05-07T05:34:57.366Z,13.70
2023-05-07T05:37:03.623Z,13.70
2023-05-07T05:39:11.697Z,13.60
2023-05-07T05:41:16.734Z,13.80
2023-05-07T05:43:24.204Z,13.80
2023-05-07T05:45:35.573Z,13.90
2023-05-07T05:47:41.314Z,13.90
2023-05-07T05:49:47.041Z,14.00
2023-05-07T05:51:56.958Z,14.00
2023-05-07T05:54:04.049Z,14.00
2023-05-07T05:56:10.643Z,14.10
2023-05-07T05:58:17.150Z,14.10
2023-05-07T06:00:31.650Z,14.00
2023-05-07T06:02:46.609Z,13.90
2023-05-07T06:04:59.474Z,14.20
2023-05-07T06:07:06.822Z,14.30
2023-05-07T06:09:12.158Z,14.30
2023-05-07T06:11:21.198Z,14.20
2023-05-07T06:13:29.046Z,14.00
2023-05-07T06:15:37.504Z,14.10
2023-05-07T06:17:50.259Z,14.20
2023-05-07T06:19:56.845Z,14.20
2023-05-07T06:22:02.488Z,14.10
2023-05-07T06:24:09.472Z,14.00
2023-05-07T06:26:16.714Z,14.00
2023-05-07T06:28:26.247Z,14.10
2023-05-07T06:30:31.102Z,14.20
2023-05-07T06:32:40.637Z,14.00
2023-05-07T06:34:48.608Z,14.10
2023-05-07T06:36:54.280Z,14.10
2023-05-07T06:39:09.826Z,14.20
2023-05-07T06:41:16.430Z,14.30
2023-05-07T06:43:21.815Z,14.20
2023-05-07T06:45:33.596Z,14.30
2023-05-07T06:47:41.460Z,14.30
2023-05-07T06:49:46.434Z,14.40
2023-05-07T06:51:55.598Z,14.50
2023-05-07T06:54:01.566Z,14.30
2023-05-07T06:56:06.761Z,14.40
2023-05-07T06:58:12.018Z,14.60
2023-05-07T07:00:19.271Z,14.40
2023-05-07T07:02:29.978Z,14.50
2023-05-07T07:04:39.696Z,14.70
2023-05-07T07:06:50.427Z,14.70
2023-05-07T07:08:55.932Z,14.60
2023-05-07T07:11:01.540Z,14.50
2023-05-07T07:13:06.580Z,14.60
2023-05-07T07:15:12.731Z,14.60
2023-05-07T07:17:17.898Z,14.50
2023-05-07T07:19:23.730Z,14.50
2023-05-07T07:21:34.439Z,14.50
2023-05-07T07:23:39.539Z,14.50
2023-05-07T07:25:45.895Z,14.60
2023-05-07T07:27:51.170Z,14.70
2023-05-07T07:29:58.562Z,14.90
2023-05-07T07:32:03.978Z,14.90
2023-05-07T07:34:09.698Z,14.80
2023-05-07T07:36:16.906Z,14.80
2023-05-07T07:38:24.529Z,14.80
2023-05-07T07:40:32.356Z,14.90
2023-05-07T07:42:41.964Z,14.80
2023-05-07T07:44:48.748Z,14.90
2023-05-07T07:46:56.795Z,15.00
2023-05-07T07:49:03.414Z,15.10
2023-05-07T07:51:11.329Z,15.00
2023-05-07T07:53:19.659Z,15.00
2023-05-07T07:55:28.226Z,15.20
2023-05-07T07:57:33.667Z,15.40
2023-05-07T07:59:44.618Z,15.20
2023-05-07T08:01:55.641Z,15.30
2023-05-07T08:04:04.333Z,15.30
2023-05-07T08:06:15.241Z,15.50
2023-05-07T08:08:21.136Z,15.50
2023-05-07T08:10:29.918Z,15.50
2023-05-07T08:12:52.682Z,15.60
2023-05-07T08:15:02.698Z,15.70
2023-05-07T08:17:09.156Z,15.90
2023-05-07T08:19:14.412Z,15.90
2023-05-07T08:21:21.466Z,16.00
2023-05-07T08:23:29.438Z,16.20
2023-05-07T08:25:37.348Z,16.30
2023-05-07T08:27:42.697Z,16.50
2023-05-07T08:29:52.700Z,16.60
2023-05-07T08:31:59.610Z,16.40
2023-05-07T08:34:06.383Z,16.50
2023-05-07T08:36:15.150Z,16.50
2023-05-07T08:38:20.798Z,16.60
2023-05-07T08:40:28.736Z,16.50
2023-05-07T08:42:42.325Z,16.60
2023-05-07T08:44:49.792Z,16.60
2023-05-07T08:47:00.817Z,16.60
2023-05-07T08:49:06.950Z,16.70
2023-05-07T08:51:14.660Z,16.80
2023-05-07T08:53:22.088Z,16.80
2023-05-07T08:55:29.207Z,16.90
2023-05-07T08:57:34.088Z,17.00
2023-05-07T08:59:44.419Z,17.10
2023-05-07T09:01:51.827Z,16.90
2023-05-07T09:03:57.320Z,17.00
2023-05-07T09:06:09.293Z,17.10
2023-05-07T09:08:14.237Z,16.90
2023-05-07T09:10:20.444Z,16.80
2023-05-07T09:12:29.486Z,16.90
2023-05-07T09:14:40.579Z,17.20
2023-05-07T09:16:50.780Z,17.40
2023-05-07T09:18:57.284Z,17.30
2023-05-07T09:21:02.250Z,17.40
2023-05-07T09:23:08.212Z,17.50
2023-05-07T09:25:14.546Z,17.70
2023-05-07T09:27:21.456Z,17.80
2023-05-07T09:29:30.512Z,17.80
2023-05-07T09:31:35.466Z,18.00
2023-05-07T09:33:43.719Z,18.10
2023-05-07T09:35:50.959Z,18.20
2023-05-07T09:37:58.624Z,18.50
2023-05-07T09:40:04.570Z,18.60
2023-05-07T09:42:10.043Z,18.40
2023-05-07T09:44:17.946Z,18.30
2023-05-07T09:46:34.619Z,18.40
2023-05-07T09:48:48.220Z,18.30
2023-05-07T09:50:56.745Z,18.20
2023-05-07T09:53:14.033Z,18.50
2023-05-07T09:55:20.214Z,18.50
2023-05-07T09:57:26.486Z,18.50
2023-05-07T09:59:38.348Z,18.60
2023-05-07T10:01:48.313Z,18.70
2023-05-07T10:03:56.457Z,18.80
2023-05-07T10:06:02.156Z,18.80
2023-05-07T10:08:08.108Z,18.60
2023-05-07T10:10:16.575Z,18.70
2023-05-07T10:12:24.076Z,18.70
2023-05-07T10:14:29.125Z,18.70
2023-05-07T10:16:39.607Z,18.40
2023-05-07T10:18:49.880Z,18.50
2023-05-07T10:21:09.277Z,18.30
2023-05-07T10:23:18.040Z,18.50
2023-05-07T10:25:29.742Z,18.30
2023-05-07T10:27:37.071Z,18.50
2023-05-07T10:29:49.763Z,18.60
2023-05-07T10:32:02.424Z,18.50
2023-05-07T10:34:13.024Z,18.40
2023-05-07T10:36:23.983Z,18.70
2023-05-07T10:38:34.046Z,18.70
2023-05-07T10:40:39.873Z,18.70
2023-05-07T10:43:03.662Z,18.80
2023-05-07T10:45:18.132Z,18.70
2023-05-07T10:47:27.396Z,19.00
2023-05-07T10:49:36.554Z,19.30
2023-05-07T10:52:12.946Z,19.40
2023-05-07T10:54:28.968Z,19.70
2023-05-07T10:56:44.392Z,19.20
2023-05-07T10:58:56.270Z,19.10
2023-05-07T11:01:14.461Z,18.90
2023-05-07T11:03:21.048Z,18.80
2023-05-07T11:06:12.136Z,18.90
2023-05-07T11:08:27.236Z,19.20
2023-05-07T11:10:58.143Z,19.20
2023-05-07T11:13:48.458Z,19.50
2023-05-07T11:16:21.641Z,19.60
2023-05-07T11:18:49.788Z,19.70
2023-05-07T11:21:00.659Z,19.80
2023-05-07T11:24:04.407Z,19.80
2023-05-07T11:26:34.141Z,19.60
2023-05-07T11:28:41.145Z,19.60
2023-05-07T11:30:47.360Z,19.90
2023-05-07T11:32:56.439Z,20.30
2023-05-07T11:35:02.565Z,20.10
2023-05-07T11:37:09.335Z,20.10
2023-05-07T11:39:31.357Z,20.20
2023-05-07T11:41:40.500Z,20.40
2023-05-07T11:44:04.581Z,20.40
2023-05-07T11:46:11.146Z,20.40
2023-05-07T11:48:16.934Z,20.00
2023-05-07T11:50:23.653Z,20.30
2023-05-07T11:52:29.732Z,20.50
2023-05-07T11:54:41.674Z,20.40
2023-05-07T11:56:48.033Z,20.60
2023-05-07T11:58:53.382Z,20.90
2023-05-07T12:00:59.019Z,21.20
2023-05-07T12:03:07.858Z,21.20
2023-05-07T12:05:13.369Z,20.90
2023-05-07T12:07:22.587Z,21.40
2023-05-07T12:09:28.938Z,21.20
2023-05-07T12:11:40.915Z,21.50
2023-05-07T12:13:48.612Z,21.90
2023-05-07T12:15:55.212Z,22.20
2023-05-07T12:18:00.709Z,22.60
2023-05-07T12:20:06.332Z,22.80
2023-05-07T12:22:15.248Z,22.80
2023-05-07T12:24:22.054Z,22.20
2023-05-07T12:26:27.691Z,23.00
2023-05-07T12:28:41.403Z,23.20
2023-05-07T12:30:50.548Z,22.70
2023-05-07T12:32:59.458Z,22.90
2023-05-07T12:35:04.369Z,22.90
2023-05-07T12:37:09.944Z,22.30
2023-05-07T12:39:16.550Z,22.50
2023-05-07T12:41:29.722Z,22.90
2023-05-07T12:43:37.326Z,23.20
2023-05-07T12:45:42.603Z,22.50
2023-05-07T12:47:49.400Z,22.20
2023-05-07T12:49:54.655Z,22.80
2023-05-07T12:52:00.956Z,22.70
2023-05-07T12:54:07.309Z,23.20
2023-05-07T12:56:12.605Z,23.30
2023-05-07T12:58:25.134Z,23.30
2023-05-07T13:00:40.632Z,23.60
2023-05-07T13:02:52.995Z,23.70
2023-05-07T13:04:57.917Z,23.60
2023-05-07T13:07:03.017Z,23.40
2023-05-07T13:09:09.621Z,23.00
2023-05-07T13:11:17.473Z,22.40
2023-05-07T13:13:22.531Z,22.30
2023-05-07T13:15:29.613Z,22.90
2023-05-07T13:17:37.354Z,22.00
2023-05-07T13:19:44.508Z,21.80
2023-05-07T13:21:50.954Z,22.70
2023-05-07T13:23:56.448Z,22.50
2023-05-07T13:26:08.562Z,22.80
2023-05-07T13:28:20.124Z,23.00
2023-05-07T13:30:27.271Z,23.20
2023-05-07T13:32:32.478Z,23.20
2023-05-07T13:34:40.483Z,24.00
2023-05-07T13:36:47.253Z,24.10
2023-05-07T13:38:52.905Z,24.10
2023-05-07T13:40:57.898Z,23.80
2023-05-07T13:43:04.157Z,23.70
2023-05-07T13:45:11.439Z,23.30
2023-05-07T13:47:16.732Z,23.00
2023-05-07T13:49:21.710Z,23.10
2023-05-07T13:51:30.197Z,23.40
2023-05-07T13:53:35.063Z,23.40
2023-05-07T13:55:40.304Z,23.90
2023-05-07T13:57:47.791Z,24.50
2023-05-07T13:59:52.684Z,25.60
2023-05-07T14:01:58.430Z,26.00
2023-05-07T14:04:05.921Z,24.80
2023-05-07T14:06:11.047Z,24.80
2023-05-07T14:08:20.775Z,23.70
2023-05-07T14:10:25.647Z,23.80
2023-05-07T14:12:33.228Z,24.50
2023-05-07T14:14:40.538Z,24.30
2023-05-07T14:16:45.742Z,23.80
2023-05-07T14:18:58.052Z,24.10
2023-05-07T14:21:03.493Z,25.00
2023-05-07T14:23:10.248Z,25.50
2023-05-07T14:25:18.146Z,26.10
2023-05-07T14:27:28.485Z,26.00
2023-05-07T14:29:33.746Z,25.50
2023-05-07T14:31:40.957Z,24.70
2023-05-07T14:33:46.137Z,25.30
2023-05-07T14:35:51.747Z,24.10
2023-05-07T14:37:56.906Z,23.90
2023-05-07T14:40:01.823Z,22.80
2023-05-07T14:42:12.571Z,24.10
2023-05-07T14:44:19.129Z,23.70
2023-05-07T14:46:25.168Z,24.00
2023-05-07T14:48:30.663Z,24.50
2023-05-07T14:50:36.749Z,25.00
2023-05-07T14:52:46.611Z,24.80
2023-05-07T14:54:54.030Z,24.50
2023-05-07T14:56:59.511Z,25.30
2023-05-07T14:59:07.379Z,24.70
2023-05-07T15:01:12.401Z,24.30
2023-05-07T15:03:19.076Z,25.30
2023-05-07T15:05:24.559Z,24.20
2023-05-07T15:07:33.747Z,25.00
2023-05-07T15:09:38.630Z,24.40
2023-05-07T15:11:47.737Z,24.50
2023-05-07T15:13:53.034Z,23.70
2023-05-07T15:16:00.518Z,23.90
2023-05-07T15:18:05.888Z,24.10
2023-05-07T15:20:11.693Z,25.00
2023-05-07T15:22:20.673Z,25.90
2023-05-07T15:24:26.501Z,25.40
2023-05-07T15:26:31.646Z,25.50
2023-05-07T15:28:36.612Z,24.20
2023-05-07T15:30:41.490Z,24.60
2023-05-07T15:32:52.176Z,25.60
2023-05-07T15:34:57.849Z,24.10
2023-05-07T15:37:03.193Z,23.90
2023-05-07T15:39:08.782Z,24.40
2023-05-07T15:41:13.924Z,24.30
2023-05-07T15:43:18.832Z,23.90
2023-05-07T15:45:23.988Z,23.90
2023-05-07T15:47:29.349Z,24.20
2023-05-07T15:49:36.874Z,24.30
2023-05-07T15:51:46.606Z,23.80
2023-05-07T15:53:52.685Z,24.30
2023-05-07T15:55:57.705Z,24.70
2023-05-07T15:58:07.003Z,24.20
2023-05-07T16:00:13.825Z,24.10
2023-05-07T16:02:18.973Z,24.40
2023-05-07T16:04:29.207Z,24.70
2023-05-07T16:06:41.448Z,24.10
2023-05-07T16:08:49.440Z,23.90
2023-05-07T16:10:54.379Z,23.30
2023-05-07T16:12:59.866Z,23.40
2023-05-07T16:15:04.922Z,22.90
2023-05-07T16:17:11.223Z,23.00
2023-05-07T16:19:16.452Z,22.10
2023-05-07T16:21:28.549Z,22.10
2023-05-07T16:23:36.680Z,22.30
2023-05-07T16:25:41.926Z,21.80
2023-05-07T16:27:46.820Z,21.70
2023-05-07T16:29:53.843Z,22.00
2023-05-07T16:32:00.945Z,21.50
2023-05-07T16:34:09.468Z,21.20
2023-05-07T16:36:18.558Z,21.10
2023-05-07T16:38:23.485Z,20.70
2023-05-07T16:40:38.871Z,20.40
2023-05-07T16:42:48.388Z,19.80
2023-05-07T16:44:53.513Z,20.00
2023-05-07T16:46:58.353Z,20.30
2023-05-07T16:49:03.601Z,19.90
2023-05-07T16:51:08.587Z,19.70
2023-05-07T16:53:14.651Z,19.70
2023-05-07T16:55:20.208Z,19.80
2023-05-07T16:57:27.809Z,20.20
2023-05-07T16:59:34.230Z,20.10
2023-05-07T17:01:42.894Z,20.30
2023-05-07T17:03:48.351Z,20.10
2023-05-07T17:05:53.308Z,19.90
2023-05-07T17:08:00.159Z,19.50
2023-05-07T17:10:10.258Z,19.80
2023-05-07T17:12:16.382Z,19.70
2023-05-07T17:14:28.771Z,19.40
2023-05-07T17:16:33.666Z,19.50
2023-05-07T17:18:39.674Z,19.20
2023-05-07T17:20:47.200Z,19.10
2023-05-07T17:22:52.085Z,18.90
2023-05-07T17:24:59.873Z,18.80
2023-05-07T17:27:04.830Z,19.00
2023-05-07T17:29:09.678Z,18.70
2023-05-07T17:31:22.376Z,18.60
2023-05-07T17:33:27.651Z,18.80
2023-05-07T17:35:33.168Z,18.60
2023-05-07T17:37:39.132Z,18.80
2023-05-07T17:39:44.331Z,18.60
2023-05-07T17:41:52.541Z,18.30
2023-05-07T17:43:57.862Z,18.20
2023-05-07T17:46:03.441Z,18.00
2023-05-07T17:48:11.169Z,17.90
2023-05-07T17:50:16.908Z,17.90
2023-05-07T17:52:21.842Z,17.90
2023-05-07T17:54:30.491Z,17.90
2023-05-07T17:56:36.025Z,17.90
2023-05-07T17:58:57.515Z,17.60
2023-05-07T18:01:04.696Z,17.50
2023-05-07T18:03:14.250Z,17.60
2023-05-07T18:05:19.493Z,17.60
2023-05-07T18:07:26.272Z,17.60
2023-05-07T18:09:31.109Z,17.60
2023-05-07T18:11:38.002Z,17.40
2023-05-07T18:13:43.007Z,17.40
2023-05-07T18:15:48.783Z,17.30
2023-05-07T18:17:53.837Z,16.90
2023-05-07T18:20:01.510Z,17.10
2023-05-07T18:22:06.460Z,17.00
2023-05-07T18:24:16.664Z,17.00
2023-05-07T18:26:21.616Z,16.80
2023-05-07T18:28:26.693Z,17.00
2023-05-07T18:30:31.813Z,17.00
2023-05-07T18:32:38.552Z,16.80
2023-05-07T18:34:43.476Z,16.70
2023-05-07T18:36:51.063Z,16.70
2023-05-07T18:38:56.542Z,16.70
2023-05-07T18:41:04.454Z,16.70
2023-05-07T18:43:10.269Z,16.70
2023-05-07T18:45:17.331Z,16.70
2023-05-07T18:47:24.524Z,16.50
2023-05-07T18:49:30.433Z,16.40
2023-05-07T18:51:35.535Z,16.60
2023-05-07T18:53:44.194Z,16.50
2023-05-07T18:55:52.797Z,16.40
2023-05-07T18:57:57.715Z,16.20
2023-05-07T19:00:03.203Z,16.40
2023-05-07T19:02:08.926Z,16.20
2023-05-07T19:04:14.307Z,16.20
2023-05-07T19:06:21.620Z,16.00
2023-05-07T19:08:27.245Z,16.10
2023-05-07T19:10:36.113Z,16.00
2023-05-07T19:12:42.828Z,16.00
2023-05-07T19:14:49.426Z,15.70
2023-05-07T19:16:58.718Z,15.80
2023-05-07T19:19:03.645Z,15.70
2023-05-07T19:21:15.226Z,15.90
2023-05-07T19:23:20.339Z,15.70
2023-05-07T19:25:27.450Z,15.90
2023-05-07T19:27:37.391Z,15.70
2023-05-07T19:29:42.741Z,15.50
2023-05-07T19:31:52.079Z,15.70
2023-05-07T19:33:57.609Z,15.40
2023-05-07T19:36:03.182Z,15.50
2023-05-07T19:38:08.387Z,15.50
2023-05-07T19:40:15.003Z,15.50
2023-05-07T19:42:19.866Z,15.50
2023-05-07T19:44:30.329Z,15.50
2023-05-07T19:46:35.833Z,15.40
2023-05-07T19:48:40.845Z,15.40
2023-05-07T19:50:46.012Z,15.50
2023-05-07T19:52:50.942Z,15.20
2023-05-07T19:54:55.843Z,15.00
2023-05-07T19:57:00.680Z,15.20
2023-05-07T19:59:08.527Z,15.00
2023-05-07T20:01:16.012Z,15.20
2023-05-07T20:03:20.944Z,15.10
2023-05-07T20:05:34.223Z,15.00
2023-05-07T20:07:39.112Z,15.20
2023-05-07T20:09:49.324Z,14.70
2023-05-07T20:11:54.331Z,14.80
2023-05-07T20:13:59.178Z,14.50
2023-05-07T20:16:04.932Z,14.70
2023-05-07T20:18:17.530Z,14.60
2023-05-07T20:20:24.099Z,14.60
2023-05-07T20:22:34.987Z,14.50
2023-05-07T20:24:41.128Z,14.40
2023-05-07T20:26:46.413Z,14.30
2023-05-07T20:28:55.723Z,14.30
2023-05-07T20:31:02.102Z,14.40
2023-05-07T20:33:08.040Z,14.30
2023-05-07T20:35:23.646Z,14.20
2023-05-07T20:37:32.266Z,14.40
2023-05-07T20:39:37.595Z,14.50
2023-05-07T20:41:42.516Z,14.30
2023-05-07T20:43:48.085Z,14.20
2023-05-07T20:46:18.064Z,14.30
2023-05-07T20:48:33.159Z,14.10
2023-05-07T20:50:41.268Z,14.30
2023-05-07T20:52:50.238Z,14.10
2023-05-07T20:54:58.843Z,14.20
2023-05-07T20:57:03.777Z,14.20
2023-05-07T20:59:13.162Z,14.30
2023-05-07T21:01:20.172Z,14.20
2023-05-07T21:03:33.455Z,14.30
2023-05-07T21:05:42.370Z,14.30
2023-05-07T21:07:47.231Z,14.10
2023-05-07T21:09:52.513Z,13.90
2023-05-07T21:12:01.255Z,13.90
2023-05-07T21:14:06.575Z,14.10
2023-05-07T21:16:15.035Z,14.10
2023-05-07T21:18:21.259Z,14.10
2023-05-07T21:20:28.296Z,14.00
2023-05-07T21:22:37.650Z,14.10
2023-05-07T21:24:43.348Z,14.00
2023-05-07T21:26:50.884Z,14.00
2023-05-07T21:28:59.356Z,14.10
2023-05-07T21:31:08.090Z,14.30
2023-05-07T21:33:14.774Z,14.10
2023-05-07T21:35:25.726Z,14.00
2023-05-07T21:37:32.631Z,14.40
2023-05-07T21:39:40.470Z,14.30
2023-05-07T21:41:59.457Z,14.20
2023-05-07T21:44:04.647Z,14.20
2023-05-07T21:46:10.004Z,14.20
2023-05-07T21:48:18.627Z,14.20
2023-05-07T21:50:24.412Z,14.10
2023-05-07T21:52:32.428Z,14.00
2023-05-07T21:54:43.617Z,14.00
2023-05-07T21:56:50.100Z,13.80
2023-05-07T21:58:55.212Z,14.00
2023-05-07T22:01:00.669Z,14.00
2023-05-07T22:03:06.600Z,14.10
2023-05-07T22:05:14.267Z,14.10
2023-05-07T22:07:19.355Z,14.00
2023-05-07T22:09:25.647Z,13.90
2023-05-07T22:11:36.102Z,13.90
2023-05-07T22:13:42.460Z,13.90
2023-05-07T22:15:57.292Z,13.80
2023-05-07T22:18:04.448Z,13.70
2023-05-07T22:20:11.582Z,13.90
2023-05-07T22:22:18.139Z,13.90
2023-05-07T22:24:24.875Z,13.80
2023-05-07T22:26:29.759Z,13.60
2023-05-07T22:28:41.307Z,13.80
2023-05-07T22:30:46.518Z,13.70
2023-05-07T22:32:52.714Z,13.60
2023-05-07T22:34:57.785Z,13.60
2023-05-07T22:37:02.675Z,13.80
2023-05-07T22:39:10.368Z,13.50
2023-05-07T22:41:15.786Z,13.70
2023-05-07T22:43:20.898Z,13.70
2023-05-07T22:45:28.462Z,13.70
2023-05-07T22:47:34.015Z,13.90
2023-05-07T22:49:39.122Z,13.70
2023-05-07T22:51:48.100Z,13.50
2023-05-07T22:53:53.604Z,13.30
2023-05-07T22:55:59.642Z,13.50
2023-05-07T22:58:05.133Z,13.70
2023-05-07T23:00:12.824Z,13.70
2023-05-07T23:02:20.453Z,13.70
2023-05-07T23:04:25.818Z,13.40
2023-05-07T23:06:31.455Z,13.50
2023-05-07T23:08:36.657Z,13.40
2023-05-07T23:10:41.712Z,13.60
2023-05-07T23:12:50.273Z,13.50
2023-05-07T23:14:55.737Z,13.60
2023-05-07T23:17:00.646Z,13.60
2023-05-07T23:19:08.382Z,13.50
2023-05-07T23:21:13.585Z,13.50
2023-05-07T23:23:21.518Z,13.30
2023-05-07T23:25:29.892Z,13.20
2023-05-07T23:27:36.324Z,12.90
2023-05-07T23:29:43.482Z,13.30
2023-05-07T23:32:03.515Z,13.20
2023-05-07T23:34:13.625Z,13.40
2023-05-07T23:36:19.014Z,13.30
2023-05-07T23:38:24.935Z,13.10
2023-05-07T23:40:29.859Z,13.20
2023-05-07T23:42:36.276Z,13.30
2023-05-07T23:44:41.143Z,13.30
2023-05-07T23:46:48.606Z,13.40
2023-05-07T23:48:54.110Z,13.30
2023-05-07T23:51:04.065Z,13.20
2023-05-07T23:53:08.991Z,13.10
2023-05-07T23:55:16.870Z,12.90
2023-05-07T23:57:24.903Z,13.20
2023-05-07T23:59:29.977Z,13.30
